• Join FlightAware (Why Join?)
  • Login
  • US Flag 
02:13PM EDT


 

Airport Tracker/Info


-or-


 

Live Flight TrackerFlight Track Log ✈ CSN3422 ✈ 09-May-2013 ✈ ZUGY / KWE - ZGGG / CAN

Flight Track Log - Related Links

Times and Time Zones

All times are in EDT time to prevent confusion due to time zone crossing. See the CSN3422 flight status page for this flight to view local times or setup timezone preferences in your user account.

Time Position Orientation Groundspeed Altitude Reporting Facility
EDT Latitude Longitude Course Direction KTS MPH feet Rate Location/Type
09:07AM 26.4818 106.9265 117° Southeast  Level Estimated
09:08AM 26.4250 107.0521 117° Southeast  Level Estimated
09:09AM 26.3681 107.1777 117° Southeast  Level Estimated
09:10AM 26.3111 107.3031 117° Southeast  Level Estimated
09:11AM 26.2540 107.4284 117° Southeast  Level Estimated
09:12AM 26.1967 107.5536 117° Southeast  Level Estimated
09:13AM 26.1394 107.6786 117° Southeast  Level Estimated
09:14AM 26.0819 107.8035 117° Southeast  Level Estimated
09:15AM 26.0244 107.9283 117° Southeast  Level Estimated
09:16AM 25.9667 108.0530 117° Southeast  Level Estimated
09:17AM 25.9090 108.1775 117° Southeast  Level Estimated
09:18AM 25.8511 108.3020 117° Southeast  Level Estimated
09:19AM 25.7931 108.4263 117° Southeast  Level Estimated
09:20AM 25.7350 108.5505 117° Southeast  Level Estimated
09:21AM 25.6768 108.6745 117° Southeast  Level Estimated
09:22AM 25.6185 108.7985 118° Southeast  Level Estimated
09:23AM 25.5601 108.9223 118° Southeast  Level Estimated
09:24AM 25.5016 109.0460 118° Southeast  Level Estimated
09:25AM 25.4430 109.1696 118° Southeast  Level Estimated
09:26AM 25.3843 109.2930 118° Southeast  Level Estimated
09:27AM 25.3255 109.4164 118° Southeast  Level Estimated
09:28AM 25.2665 109.5396 118° Southeast  Level Estimated
09:29AM 25.2075 109.6627 118° Southeast  Level Estimated
09:30AM 25.1484 109.7857 118° Southeast  Level Estimated
09:31AM 25.0892 109.9085 118° Southeast  Level Estimated
09:32AM 25.0298 110.0313 118° Southeast  Level Estimated
09:33AM 24.9704 110.1539 118° Southeast  Level Estimated
09:34AM 24.9109 110.2764 118° Southeast  Level Estimated
09:35AM 24.8512 110.3988 118° Southeast  Level Estimated
09:36AM 24.7915 110.5211 118° Southeast  Level Estimated
09:37AM 24.7317 110.6432 118° Southeast  Level Estimated
09:38AM 24.6717 110.7653 118° Southeast  Level Estimated
09:39AM 24.6117 110.8872 118° Southeast  Level Estimated
09:40AM 24.5516 111.0090 118° Southeast  Level Estimated
09:41AM 24.4914 111.1307 119° Southeast  Level Estimated
09:42AM 24.4311 111.2522 119° Southeast  Level Estimated
09:43AM 24.3707 111.3737 119° Southeast  Level Estimated
09:44AM 24.3102 111.4950 119° Southeast  Level Estimated
09:45AM 24.2495 111.6162 119° Southeast  Level Estimated
09:46AM 24.1888 111.7374 119° Southeast  Level Estimated
09:47AM 24.1280 111.8583 119° Southeast  Level Estimated
09:48AM 24.0672 111.9792 119° Southeast  Level Estimated
09:49AM 24.0062 112.1000 119° Southeast  Level Estimated
09:50AM 23.9451 112.2206 119° Southeast  Level Estimated
09:51AM 23.8839 112.3411 119° Southeast  Level Estimated
09:52AM 23.8226 112.4616 119° Southeast  Level Estimated
09:53AM 23.7613 112.5819 119° Southeast  Level Estimated
09:54AM 23.6998 112.7020 119° Southeast  Level Estimated
09:55AM 23.6383 112.8221 119° Southeast  Level Estimated
09:56AM 23.5766 112.9421 119° Southeast  Level Estimated
09:57AM 23.5149 113.0619 119° Southeast  Level Estimated
09:58AM 23.4531 113.1817 119° Southeast  Level Estimated
09:59AM 23.3924 113.2988 119° Southeast  Level Estimated
10:00AM 23.3924 113.2988 223° Southwest  Level Estimated
10:01AM 23.3924 113.2988 223° Southwest  Level Estimated
10:02AM 23.3924 113.2988 223° Southwest  Level Estimated
10:03AM 23.3924 113.2988 223° Southwest  Level Estimated
10:04AM 23.3924 113.2988 223° Southwest  Level Estimated
10:05AM 23.3924 113.2988 223° Southwest  Level Estimated
10:06AM 23.3924 113.2988 223° Southwest  Level Estimated
10:07AM 23.3924 113.2988 223° Southwest  Level Estimated
10:08AM 23.3924 113.2988 223° Southwest  Level Estimated
10:09AM 23.3924 113.2988 223° Southwest  Level Estimated
10:10AM 23.3924 113.2988 223° Southwest  Level Estimated
10:11AM 23.3924 113.2988 223° Southwest  Level Estimated
10:12AM 23.3924 113.2988 223° Southwest  Level Estimated
10:13AM 23.3924 113.2988 223° Southwest  Level Estimated
10:14AM 23.3924 113.2988 223° Southwest  Level Estimated
10:15AM 23.3924 113.2988 223° Southwest  Level Estimated